Weather History for Lexington, NE

Change the Weather History Date:

Sunday, October 7, 2012

  Actual Average Record
Temperature  
Mean Temperature 38 °F -  
Max Temperature 55 °F 66 °F 87 °F (2006)
Min Temperature 21 °F 40 °F 21 °F (2012)
Degree Days  
Heating Degree Days 27    
Moisture  
Dew Point 27 °F    
Average Humidity 70    
Maximum Humidity 96    
Minimum Humidity 32    
Precipitation  
Precipitation 0.00 in - - ()
Sea Level Pressure  
Sea Level Pressure 30.17 in    
Wind  
Wind Speed 6 mph (WSW)    
Max Wind Speed 16 mph    
Max Gust Speed 24 mph    
Visibility 10 miles    
Events      
Averages and records for this station are not official NWS values.
T = Trace of Precipitation, MM = Missing Value Source: NWS Daily Summary

Daily Weather History Graph

Daily Weather History Graph

Search for Another Location

Airport:

Trip Planner

Search our weather history database for the weather conditions in past years. The results will help you decide how hot, cold, wet, or windy it might be!

Date:

Astronomy

Oct. 07, 2012 Rise Set
Actual Time 7:42 AM CDT 7:10 PM CDT
Civil Twilight 7:14 AM CDT 7:37 PM CDT
Nautical Twilight 6:43 AM CDT 8:09 PM CDT
Astronomical Twilight 6:11 AM CDT 8:41 PM CDT
Moon No Moon Rise 2:22 PM CDT (10/7)
Length of Visible Light 12h 22m
Length of Day
11h 28m
Waning Gibbous, 56% of the Moon is Illuminated
Oct 7
Waning Gibbous
Oct 8
Last Quarter
Oct 15
New
Oct 21
First Quarter
Oct 29
Full

Hourly Weather History & Observations

Time (CDT) Temp. Windchill Dew Point Humidity Pressure Visibility Wind Dir Wind Speed Gust Speed Precip Events Conditions
12:15 AM 30.2 °F 25.4 °F 28.9 °F 95% 30.33 in 10.0 mi West 4.6 mph - N/A   Clear
12:35 AM 28.9 °F 25.2 °F 27.5 °F 94% 30.32 in 10.0 mi West 3.5 mph - N/A   Clear
12:55 AM 28.8 °F 25.0 °F 27.5 °F 95% 30.32 in 10.0 mi West 3.5 mph - N/A   Clear
1:15 AM 28.2 °F 21.0 °F 26.8 °F 94% 30.32 in 10.0 mi West 6.9 mph - N/A   Clear
1:35 AM 28.6 °F 22.4 °F 27.5 °F 96% 30.31 in 10.0 mi West 5.8 mph - N/A   Clear
1:55 AM 27.9 °F - 26.2 °F 94% 30.31 in 10.0 mi Calm Calm - N/A   Clear
2:15 AM 26.6 °F 22.6 °F 25.3 °F 95% 30.31 in 10.0 mi NW 3.5 mph - N/A   Clear
2:35 AM 26.4 °F 20.9 °F 25.0 °F 94% 30.31 in 10.0 mi West 4.6 mph - N/A   Clear
2:55 AM 26.6 °F 21.2 °F 25.3 °F 95% 30.31 in 10.0 mi West 4.6 mph - N/A   Clear
3:15 AM 26.4 °F 19.8 °F 25.2 °F 95% 30.30 in 10.0 mi West 5.8 mph - N/A   Clear
3:35 AM 25.5 °F 18.7 °F 23.9 °F 94% 30.29 in 10.0 mi West 5.8 mph - N/A   Clear
3:55 AM 26.2 °F 18.6 °F 24.8 °F 94% 30.28 in 10.0 mi West 6.9 mph - N/A   Clear
4:15 AM 26.4 °F 22.4 °F 24.6 °F 93% 30.28 in 10.0 mi West 3.5 mph - N/A   Clear
4:35 AM 25.5 °F 19.9 °F 23.9 °F 94% 30.27 in 10.0 mi West 4.6 mph - N/A   Clear
4:55 AM 24.6 °F 20.3 °F 23.0 °F 94% 30.27 in 10.0 mi West 3.5 mph - N/A   Clear
5:15 AM 22.6 °F - 21.0 °F 93% 30.26 in 10.0 mi Calm Calm - N/A   Clear
5:35 AM 22.8 °F 18.2 °F 21.4 °F 94% 30.26 in 10.0 mi WSW 3.5 mph - N/A   Clear
5:55 AM 22.6 °F - 21.0 °F 93% 30.26 in 10.0 mi Calm Calm - N/A   Clear
6:15 AM 22.8 °F - 21.2 °F 93% 30.25 in 10.0 mi Calm Calm - N/A   Clear
6:35 AM 23.0 °F - 21.7 °F 95% 30.25 in 10.0 mi Calm Calm - N/A   Clear
6:55 AM 22.8 °F - 21.4 °F 94% 30.26 in 10.0 mi Calm Calm - N/A   Clear
7:15 AM 22.6 °F 18.0 °F 21.2 °F 94% 30.25 in 10.0 mi WSW 3.5 mph - N/A   Clear
7:35 AM 23.2 °F - 21.9 °F 95% 30.25 in 10.0 mi Calm Calm - N/A   Clear
7:55 AM 21.7 °F - 20.3 °F 94% 30.25 in 10.0 mi Calm Calm - N/A   Clear
8:15 AM 21.0 °F - 19.4 °F 93% 30.25 in 10.0 mi Calm Calm - N/A   Clear
8:35 AM 22.8 °F - 21.6 °F 95% 30.25 in 10.0 mi Calm Calm - N/A   Clear
8:55 AM 25.3 °F - 23.9 °F 94% 30.25 in 10.0 mi Calm Calm - N/A   Clear
9:15 AM 27.3 °F - 25.7 °F 94% 30.25 in 10.0 mi Calm Calm - N/A   Clear
9:35 AM 30.9 °F - 29.3 °F 94% 30.25 in 10.0 mi Calm Calm - N/A   Clear
9:55 AM 33.6 °F 28.4 °F 31.8 °F 93% 30.24 in 10.0 mi West 5.8 mph - N/A   Clear
10:15 AM 36.1 °F 30.6 °F 32.5 °F 87% 30.24 in 10.0 mi WSW 6.9 mph - N/A   Clear
10:35 AM 38.5 °F 31.6 °F 34.2 °F 84% 30.24 in 10.0 mi WSW 10.4 mph - N/A   Clear
10:55 AM 40.5 °F 33.2 °F 34.2 °F 78% 30.23 in 10.0 mi West 12.7 mph 16.1 mph N/A   Clear
11:15 AM 41.2 °F 34.5 °F 34.0 °F 76% 30.22 in 10.0 mi WSW 11.5 mph 17.3 mph N/A   Clear
11:35 AM 42.8 °F 36.6 °F 34.3 °F 72% 30.21 in 10.0 mi West 11.5 mph - N/A   Clear
11:55 AM 43.7 °F 37.7 °F 34.0 °F 69% 30.20 in 10.0 mi WSW 11.5 mph - N/A   Scattered Clouds
12:35 PM 45.5 °F 40.8 °F 34.0 °F 64% 30.18 in 10.0 mi WSW 9.2 mph - N/A   Clear
12:55 PM 47.8 °F - 33.8 °F 58% 30.17 in 10.0 mi WSW 13.8 mph - N/A   Scattered Clouds
1:15 PM 48.6 °F - 32.0 °F 53% 30.16 in 10.0 mi WSW 15.0 mph 19.6 mph N/A   Clear
1:35 PM 49.6 °F - 32.5 °F 52% 30.15 in 10.0 mi WSW 12.7 mph 19.6 mph N/A   Scattered Clouds
1:55 PM 50.9 °F - 31.6 °F 48% 30.13 in 10.0 mi WSW 10.4 mph 23.0 mph N/A   Scattered Clouds
2:15 PM 51.3 °F - 31.5 °F 47% 30.12 in 10.0 mi WSW 16.1 mph 24.2 mph N/A   Clear
2:35 PM 52.0 °F - 30.9 °F 45% 30.11 in 10.0 mi West 16.1 mph 24.2 mph N/A   Scattered Clouds
2:55 PM 53.1 °F - 29.8 °F 41% 30.09 in 10.0 mi WSW 16.1 mph 21.9 mph N/A   Scattered Clouds
3:15 PM 53.8 °F - 28.6 °F 38% 30.08 in 10.0 mi WSW 13.8 mph 19.6 mph N/A   Clear
3:35 PM 54.7 °F - 28.4 °F 36% 30.06 in 10.0 mi WSW 13.8 mph 18.4 mph N/A   Clear
3:55 PM 54.9 °F - 28.2 °F 36% 30.06 in 10.0 mi WSW 13.8 mph 19.6 mph N/A   Clear
4:15 PM 55.4 °F - 26.6 °F 33% 30.05 in 10.0 mi West 12.7 mph 20.7 mph N/A   Clear
4:35 PM 55.0 °F - 26.2 °F 33% 30.05 in 10.0 mi WSW 10.4 mph 21.9 mph N/A   Clear
4:55 PM 55.6 °F - 26.8 °F 33% 30.04 in 10.0 mi West 15.0 mph 19.6 mph N/A   Clear
5:15 PM 55.2 °F - 26.4 °F 33% 30.04 in 10.0 mi WSW 10.4 mph 19.6 mph N/A   Clear
5:35 PM 55.4 °F - 25.7 °F 32% 30.03 in 10.0 mi WSW 11.5 mph - N/A   Clear
5:55 PM 54.9 °F - 25.7 °F 32% 30.03 in 10.0 mi WSW 11.5 mph 16.1 mph N/A   Clear
6:15 PM 54.1 °F - 25.7 °F 33% 30.03 in 10.0 mi West 11.5 mph 16.1 mph N/A   Clear
6:35 PM 52.9 °F - 26.1 °F 35% 30.02 in 10.0 mi SW 9.2 mph - N/A   Clear
6:55 PM 50.7 °F - 27.3 °F 40% 30.02 in 10.0 mi SW 8.1 mph - N/A   Clear
7:15 PM 47.5 °F - 27.5 °F 46% 30.02 in 10.0 mi SW 8.1 mph - N/A   Clear
7:55 PM 44.2 °F 40.3 °F 27.5 °F 52% 30.02 in 10.0 mi SW 6.9 mph - N/A   Clear
8:15 PM 43.0 °F 38.2 °F 28.0 °F 56% 30.03 in 10.0 mi SW 8.1 mph - N/A   Clear
8:35 PM 43.5 °F 39.4 °F 27.9 °F 54% 30.02 in 10.0 mi SW 6.9 mph - N/A   Clear
8:55 PM 41.7 °F 36.7 °F 27.5 °F 57% 30.03 in 10.0 mi SW 8.1 mph - N/A   Clear
9:15 PM 43.5 °F 38.9 °F 28.0 °F 54% 30.03 in 10.0 mi SW 8.1 mph - N/A   Clear
9:35 PM 43.2 °F 38.4 °F 27.9 °F 55% 30.03 in 10.0 mi SW 8.1 mph - N/A   Clear
9:55 PM 42.8 °F 38.0 °F 27.5 °F 55% 30.03 in 10.0 mi SW 8.1 mph - N/A   Clear
10:15 PM 43.0 °F 38.2 °F 27.5 °F 54% 30.02 in 10.0 mi SW 8.1 mph - N/A   Clear
10:35 PM 42.4 °F 37.5 °F 27.3 °F 55% 30.02 in 10.0 mi WSW 8.1 mph - N/A   Clear
10:55 PM 41.9 °F 37.5 °F 27.3 °F 56% 30.02 in 10.0 mi WSW 6.9 mph - N/A   Clear
11:15 PM 41.7 °F 37.3 °F 27.0 °F 56% 30.02 in 10.0 mi WSW 6.9 mph - N/A   Clear
11:35 PM 42.4 °F 37.5 °F 26.6 °F 54% 30.01 in 10.0 mi WSW 8.1 mph - N/A   Clear
11:55 PM 42.3 °F 37.3 °F 26.1 °F 53% 30.01 in 10.0 mi SW 8.1 mph - N/A   Clear